Sequoia / Kings National Park, CA

9:20 PM PDT on August 30, 2014 (GMT -0700)
Bishop | Change Station
CLOSE
Current Station
Airport
Location: Bishop,
Elevation: 4144 ft
Nearby Weather Stations
Active Advisory: Wind Advisory

Elev 4144 ft 37.37 °N, 118.36 °W | Updated 24 minutes ago

Clear
Clear
81 °F
Feels Like 81 °F
N
9
Wind Variable Wind from NNW

Today
High -- | Low -- °F
--% Chance of Precip.
Yesterday
High -- | Low -- °F
Precip. -- in
6:22 AM 7:25 PM
Waxing Crescent, 27% visible
Pressure 29.76 in
Visibility 10.0 miles
Clouds Clear
Dew Point 20 °F
Humidity 10%
Rainfall 0.00 in
Snow Depth Not available.
UV 0 out of 12
Pollen 9.90 out of 12
Air Quality Not available.
Flu Activity Not available.
METAR KBIH 310356Z AUTO 34008KT 10SM CLR 27/M07 A2992 RMK AO2 SLP078 T02721067

More Conditions Fewer Conditions

Pressure 29.76 in
Visibility 10.0 miles
Clouds Clear
Dew Point 20 °F
Humidity 10%
Rainfall 0.00 in
Snow Depth Not available.
UV 0 out of 12
Pollen 9.90 out of 12
Air Quality Not available.
Flu Activity Not available.
METAR KBIH 310356Z AUTO 34008KT 10SM CLR 27/M07 A2992 RMK AO2 SLP078 T02721067

More Conditions Fewer Conditions

10-Day Weather Forecast

Almanac

Astronomy

Aug. 30, 2014 Rise Set
Actual Time 6:22 AM PDT 7:25 PM PDT
Civil Twilight 5:55 AM PDT 7:52 PM PDT
Nautical Twilight 5:24 AM PDT 8:24 PM PDT
Astronomical Twilight 4:50 AM PDT 8:56 PM PDT
Moon 11:08 AM PDT (8/30) 10:10 PM PDT (8/30)
Length of Visible Light 13h 56m
Length of Day
13h 02m
Tomorrow will be 2m 17s shorter.
Waxing Crescent, 27% of the Moon is Illuminated
Aug 31
Waxing Crescent
Sep 2
First Quarter
Sep 8
Full
Sep 15
Last Quarter
Sep 24
New

Today's Extremes

State Highs State Lows

Community

WunderPhotos

Upload Photos

1,748,776 photos uploaded!

Nearby

Snow Depth

Station Depth Elevation
Leavitt Lake 0 in 9400 ft
Leavitt Meadows 0 in 7200 ft
Summit Meadow 0 in 9122 ft
Monitor Pass 0 in 8350 ft
Hagan's Meadow 0 in 8000 ft

Earthquake Activity

City Distance Mag. Time & Date
Goldfield, Nevada 75 miles 2.7 7:38 PM PDT
2014-08-30
Orange Cove, California 67 miles 2.5 7:48 AM PDT
2014-08-29
Minimum magnitude displayed is 2.5.

Coastal Water Temperatures

Place Temperature
No Stations Reporting

Nearby Weather Stations